• Join FlightAware (Why Join?)
  • Login
  • US Flag 
02:54PM EDT


 

Airport Tracker/Info


-or-


 

Live Flight TrackerFlight Track Log ✈ TAM3219 ✈ 18-May-2013 ✈ SBCF / CNF - SBSP / CGH

Flight Track Log - Related Links

Times and Time Zones

All times are in EDT time to prevent confusion due to time zone crossing. See the TAM3219 flight status page for this flight to view local times or setup timezone preferences in your user account.

Time Position Orientation Groundspeed Altitude Reporting Facility
EDT Latitude Longitude Course Direction KTS MPH feet Rate Location/Type
04:00PM -21.3216 -45.0830 212° Southwest  Level Estimated
04:01PM -21.3918 -45.1300 212° Southwest  Level Estimated
04:02PM -21.4620 -45.1770 212° Southwest  Level Estimated
04:03PM -21.5321 -45.2240 212° Southwest  Level Estimated
04:04PM -21.6023 -45.2711 212° Southwest  Level Estimated
04:05PM -21.6724 -45.3183 212° Southwest  Level Estimated
04:06PM -21.7425 -45.3655 212° Southwest  Level Estimated
04:07PM -21.8126 -45.4127 212° Southwest  Level Estimated
04:08PM -21.8827 -45.4600 212° Southwest  Level Estimated
04:09PM -21.9527 -45.5073 212° Southwest  Level Estimated
04:10PM -22.0228 -45.5547 212° Southwest  Level Estimated
04:11PM -22.0928 -45.6021 212° Southwest  Level Estimated
04:12PM -22.1628 -45.6496 212° Southwest  Level Estimated
04:13PM -22.2328 -45.6971 212° Southwest  Level Estimated
04:14PM -22.3029 -45.7447 212° Southwest  Level Estimated
04:15PM -22.3728 -45.7923 212° Southwest  Level Estimated
04:16PM -22.4428 -45.8399 212° Southwest  Level Estimated
04:17PM -22.5128 -45.8876 212° Southwest  Level Estimated
04:18PM -22.5827 -45.9354 212° Southwest  Level Estimated
04:19PM -22.6526 -45.9832 212° Southwest  Level Estimated
04:20PM -22.7225 -46.0311 212° Southwest  Level Estimated
04:21PM -22.7924 -46.0790 212° Southwest  Level Estimated
04:22PM -22.8623 -46.1269 212° Southwest  Level Estimated
04:23PM -22.9322 -46.1749 212° Southwest  Level Estimated
04:24PM -23.0020 -46.2230 212° Southwest  Level Estimated
04:25PM -23.0719 -46.2711 212° Southwest  Level Estimated
04:26PM -23.1417 -46.3192 212° Southwest  Level Estimated
04:27PM -23.2115 -46.3674 212° Southwest  Level Estimated
04:28PM -23.2813 -46.4157 212° Southwest  Level Estimated
04:29PM -23.3511 -46.4640 212° Southwest  Level Estimated
04:30PM -23.4209 -46.5124 212° Southwest  Level Estimated
04:31PM -23.4906 -46.5608 212° Southwest  Level Estimated
04:32PM -23.5604 -46.6092 212° Southwest  Level Estimated
04:33PM -23.6267 -46.6554 213° Southwest  Level Estimated
04:34PM -23.6267 -46.6554 114° Southeast  Level Estimated
04:35PM -23.6267 -46.6554 114° Southeast  Level Estimated
04:36PM -23.6267 -46.6554 114° Southeast  Level Estimated
04:37PM -23.6267 -46.6554 114° Southeast  Level Estimated
04:38PM -23.6267 -46.6554 114° Southeast  Level Estimated
04:39PM -23.6267 -46.6554 114° Southeast  Level Estimated
04:40PM -23.6267 -46.6554 114° Southeast  Level Estimated
04:41PM -23.6267 -46.6554 114° Southeast  Level Estimated
04:42PM -23.6267 -46.6554 114° Southeast  Level Estimated
04:43PM -23.6267 -46.6554 114° Southeast  Level Estimated
04:44PM -23.6267 -46.6554 114° Southeast  Level Estimated
04:45PM -23.6267 -46.6554 114° Southeast  Level Estimated
04:46PM -23.6267 -46.6554 114° Southeast  Level Estimated